This is the latest recevied weather packets stored in our database for station/object G7GQA-4. If no packets are shown the sender has not sent any weather packets the latest 10 day(s).
| Time | Temp. | Humidity | Pressure | Rain* | Wind** | Luminosity | Snow |
|---|---|---|---|---|---|---|---|
| 1777442726 | 8.33° C | 78% | - | 0 mm | - | 65 W/m² | - |
| 1777442127 | 7.78° C | 80% | - | 0 mm | - | 52 W/m² | - |
| 1777441526 | 7.22° C | 82% | - | 0 mm | - | 45 W/m² | - |
| 1777440926 | 6.11° C | 86% | - | 0 mm | - | 35 W/m² | - |
| 1777440326 | 5° C | 89% | - | 0 mm | - | 23 W/m² | - |
| 1777439726 | 4.44° C | 89% | - | 0 mm | - | 17 W/m² | - |
| 1777439126 | 4.44° C | 89% | - | 0 mm | - | 12 W/m² | - |
| 1777438526 | 5° C | 88% | - | 0 mm | - | 7 W/m² | - |
| 1777437926 | 4.44° C | 90% | - | 0 mm | - | 3 W/m² | - |
| 1777437326 | 4.44° C | 90% | - | 0 mm | - | 1 W/m² | - |
| 1777436726 | 4.44° C | 89% | - | 0 mm | - | 0 W/m² | - |
| 1777436126 | 4.44° C | 89% | - | 0 mm | - | 0 W/m² | - |
| 1777435526 | 5° C | 88% | - | 0 mm | - | 0 W/m² | - |
| 1777434926 | 5° C | 88% | - | 0 mm | - | 0 W/m² | - |
| 1777434326 | 5° C | 87% | - | 0 mm | - | 0 W/m² | - |
| 1777433726 | 5° C | 86% | - | 0 mm | - | 0 W/m² | - |
| 1777433126 | 5.56° C | 85% | - | 0 mm | - | 0 W/m² | - |
| 1777432526 | 6.11° C | 83% | - | 0 mm | - | 0 W/m² | - |
| 1777431926 | 6.11° C | 83% | - | 0 mm | - | 0 W/m² | - |
| 1777431326 | 6.11° C | 83% | - | 0 mm | - | 0 W/m² | - |
| 1777430726 | 6.67° C | 82% | - | 0 mm | - | 0 W/m² | - |
| 1777430126 | 6.67° C | 82% | - | 0 mm | - | 0 W/m² | - |
| 1777429526 | 6.67° C | 82% | - | 0 mm | - | 0 W/m² | - |
| 1777428926 | 6.67° C | 82% | - | 0 mm | - | 0 W/m² | - |
| 1777428326 | 6.67° C | 81% | - | 0 mm | - | 0 W/m² | - |
* Rain latest hour (hover to see other rain measurements)
** Current wind speed in m/s (hover to see current wind gust speed)